sensor_id;sensor_type;location;lat;lon;timestamp;temperature;humidity
4922;DHT22;16625;53.624;10.106;2023-04-23T00:00:02;14.80;99.90
4922;DHT22;16625;53.624;10.106;2023-04-23T00:02:32;14.80;20.10
4922;DHT22;16625;53.624;10.106;2023-04-23T00:05:02;14.70;99.90
4922;DHT22;16625;53.624;10.106;2023-04-23T00:07:31;14.70;1.00
4922;DHT22;16625;53.624;10.106;2023-04-23T00:10:00;14.90;68.70
4922;DHT22;16625;53.624;10.106;2023-04-23T00:12:31;14.70;12.80
4922;DHT22;16625;53.624;10.106;2023-04-23T00:15:01;14.80;99.90
4922;DHT22;16625;53.624;10.106;2023-04-23T00:17:29;14.80;1.00
4922;DHT22;16625;53.624;10.106;2023-04-23T00:19:55;14.70;43.70
4922;DHT22;16625;53.624;10.106;2023-04-23T00:22:22;14.80;54.20
4922;DHT22;16625;53.624;10.106;2023-04-23T00:24:50;14.80;1.00
4922;DHT22;16625;53.624;10.106;2023-04-23T00:27:19;14.90;99.90
4922;DHT22;16625;53.624;10.106;2023-04-23T00:29:46;14.70;99.90
4922;DHT22;16625;53.624;10.106;2023-04-23T00:32:16;14.70;1.00
4922;DHT22;16625;53.624;10.106;2023-04-23T00:34:43;14.70;32.50
4922;DHT22;16625;53.624;10.106;2023-04-23T00:37:13;14.60;96.90
4922;DHT22;16625;53.624;10.106;2023-04-23T00:39:41;14.70;99.90
4922;DHT22;16625;53.624;10.106;2023-04-23T00:42:08;14.60;99.90
4922;DHT22;16625;53.624;10.106;2023-04-23T00:44:39;14.60;99.90
4922;DHT22;16625;53.624;10.106;2023-04-23T00:47:06;14.50;99.90
4922;DHT22;16625;53.624;10.106;2023-04-23T00:49:33;14.60;99.90
4922;DHT22;16625;53.624;10.106;2023-04-23T00:52:01;14.60;99.90
4922;DHT22;16625;53.624;10.106;2023-04-23T00:54:28;14.50;99.90
4922;DHT22;16625;53.624;10.106;2023-04-23T00:56:55;14.50;99.90
4922;DHT22;16625;53.624;10.106;2023-04-23T00:59:24;14.40;99.90
4922;DHT22;16625;53.624;10.106;2023-04-23T01:01:53;14.40;99.90
4922;DHT22;16625;53.624;10.106;2023-04-23T01:04:20;14.40;99.90
4922;DHT22;16625;53.624;10.106;2023-04-23T01:06:48;14.30;99.90
4922;DHT22;16625;53.624;10.106;2023-04-23T01:09:15;14.50;99.90
4922;DHT22;16625;53.624;10.106;2023-04-23T01:11:44;14.30;99.90
4922;DHT22;16625;53.624;10.106;2023-04-23T01:14:12;14.20;99.90
4922;DHT22;16625;53.624;10.106;2023-04-23T01:16:39;14.30;99.90
4922;DHT22;16625;53.624;10.106;2023-04-23T01:19:09;14.30;99.90
4922;DHT22;16625;53.624;10.106;2023-04-23T01:21:38;14.10;99.90
4922;DHT22;16625;53.624;10.106;2023-04-23T01:24:09;14.10;99.90
4922;DHT22;16625;53.624;10.106;2023-04-23T01:26:36;14.10;99.90
4922;DHT22;16625;53.624;10.106;2023-04-23T01:29:03;14.10;99.90
4922;DHT22;16625;53.624;10.106;2023-04-23T01:31:30;14.20;99.90
4922;DHT22;16625;53.624;10.106;2023-04-23T01:33:59;13.80;99.90
4922;DHT22;16625;53.624;10.106;2023-04-23T01:36:26;14.00;99.90
4922;DHT22;16625;53.624;10.106;2023-04-23T01:38:53;14.00;99.90
4922;DHT22;16625;53.624;10.106;2023-04-23T01:41:24;13.80;99.90
4922;DHT22;16625;53.624;10.106;2023-04-23T01:43:51;13.90;99.90
4922;DHT22;16625;53.624;10.106;2023-04-23T01:46:19;14.00;99.90
4922;DHT22;16625;53.624;10.106;2023-04-23T01:48:46;14.00;99.90
4922;DHT22;16625;53.624;10.106;2023-04-23T01:51:14;14.00;99.90
4922;DHT22;16625;53.624;10.106;2023-04-23T01:53:41;13.90;99.90
4922;DHT22;16625;53.624;10.106;2023-04-23T01:56:08;14.00;99.90
4922;DHT22;16625;53.624;10.106;2023-04-23T01:58:38;13.90;99.90
4922;DHT22;16625;53.624;10.106;2023-04-23T02:01:05;14.10;99.90
4922;DHT22;16625;53.624;10.106;2023-04-23T02:03:32;14.10;99.90
4922;DHT22;16625;53.624;10.106;2023-04-23T02:05:59;14.30;99.90
4922;DHT22;16625;53.624;10.106;2023-04-23T02:08:27;14.20;99.90
4922;DHT22;16625;53.624;10.106;2023-04-23T02:10:54;13.90;99.90
4922;DHT22;16625;53.624;10.106;2023-04-23T02:13:21;14.00;1.00
4922;DHT22;16625;53.624;10.106;2023-04-23T02:15:49;13.40;99.90
4922;DHT22;16625;53.624;10.106;2023-04-23T02:18:16;13.10;1.00
4922;DHT22;16625;53.624;10.106;2023-04-23T02:20:43;12.50;99.90
4922;DHT22;16625;53.624;10.106;2023-04-23T02:23:10;12.40;1.00
4922;DHT22;16625;53.624;10.106;2023-04-23T02:25:38;12.00;99.90
4922;DHT22;16625;53.624;10.106;2023-04-23T02:28:05;12.10;99.90
4922;DHT22;16625;53.624;10.106;2023-04-23T02:30:32;11.80;99.90
4922;DHT22;16625;53.624;10.106;2023-04-23T02:33:01;11.90;1.00
4922;DHT22;16625;53.624;10.106;2023-04-23T02:35:28;11.70;1.00
4922;DHT22;16625;53.624;10.106;2023-04-23T02:37:55;11.60;1.00
4922;DHT22;16625;53.624;10.106;2023-04-23T02:40:22;11.50;1.00
4922;DHT22;16625;53.624;10.106;2023-04-23T02:42:49;11.50;1.00
4922;DHT22;16625;53.624;10.106;2023-04-23T02:45:16;11.40;1.00
4922;DHT22;16625;53.624;10.106;2023-04-23T02:47:43;11.60;1.00
4922;DHT22;16625;53.624;10.106;2023-04-23T02:50:12;11.30;1.00
4922;DHT22;16625;53.624;10.106;2023-04-23T02:52:39;11.30;1.00
4922;DHT22;16625;53.624;10.106;2023-04-23T02:55:07;11.20;1.00
4922;DHT22;16625;53.624;10.106;2023-04-23T02:57:34;11.10;1.00
4922;DHT22;16625;53.624;10.106;2023-04-23T03:00:01;11.30;1.00
4922;DHT22;16625;53.624;10.106;2023-04-23T03:02:30;11.30;1.00
4922;DHT22;16625;53.624;10.106;2023-04-23T03:04:57;10.90;1.00
4922;DHT22;16625;53.624;10.106;2023-04-23T03:07:26;11.00;1.00
4922;DHT22;16625;53.624;10.106;2023-04-23T03:09:52;10.90;13.30
4922;DHT22;16625;53.624;10.106;2023-04-23T03:12:19;11.10;38.40
4922;DHT22;16625;53.624;10.106;2023-04-23T03:14:46;10.90;36.40
4922;DHT22;16625;53.624;10.106;2023-04-23T03:17:13;11.00;73.90
4922;DHT22;16625;53.624;10.106;2023-04-23T03:19:40;11.00;72.00
4922;DHT22;16625;53.624;10.106;2023-04-23T03:22:07;11.00;60.80
4922;DHT22;16625;53.624;10.106;2023-04-23T03:24:36;11.10;39.60
4922;DHT22;16625;53.624;10.106;2023-04-23T03:27:03;10.90;74.60
4922;DHT22;16625;53.624;10.106;2023-04-23T03:29:30;11.10;69.50
4922;DHT22;16625;53.624;10.106;2023-04-23T03:31:56;10.80;99.90
4922;DHT22;16625;53.624;10.106;2023-04-23T03:34:23;11.00;99.90
4922;DHT22;16625;53.624;10.106;2023-04-23T03:36:50;11.00;99.90
4922;DHT22;16625;53.624;10.106;2023-04-23T03:39:17;10.40;99.90
4922;DHT22;16625;53.624;10.106;2023-04-23T03:41:45;10.60;99.90
4922;DHT22;16625;53.624;10.106;2023-04-23T03:44:12;10.10;99.90
4922;DHT22;16625;53.624;10.106;2023-04-23T03:46:39;10.70;99.90
4922;DHT22;16625;53.624;10.106;2023-04-23T03:49:06;10.70;99.90
4922;DHT22;16625;53.624;10.106;2023-04-23T03:51:33;10.80;99.90
4922;DHT22;16625;53.624;10.106;2023-04-23T03:54:00;10.70;99.90
4922;DHT22;16625;53.624;10.106;2023-04-23T03:56:27;10.60;99.90
4922;DHT22;16625;53.624;10.106;2023-04-23T03:58:55;10.40;99.90
4922;DHT22;16625;53.624;10.106;2023-04-23T04:01:22;10.50;99.90
4922;DHT22;16625;53.624;10.106;2023-04-23T04:03:49;10.40;99.90
4922;DHT22;16625;53.624;10.106;2023-04-23T04:06:16;10.60;99.90
4922;DHT22;16625;53.624;10.106;2023-04-23T04:08:42;10.30;99.90
4922;DHT22;16625;53.624;10.106;2023-04-23T04:11:09;10.60;99.90
4922;DHT22;16625;53.624;10.106;2023-04-23T04:13:36;10.00;99.90
4922;DHT22;16625;53.624;10.106;2023-04-23T04:16:07;10.60;99.90
4922;DHT22;16625;53.624;10.106;2023-04-23T04:18:34;10.30;55.20
4922;DHT22;16625;53.624;10.106;2023-04-23T04:21:01;10.50;3.80
4922;DHT22;16625;53.624;10.106;2023-04-23T04:23:28;10.30;41.60
4922;DHT22;16625;53.624;10.106;2023-04-23T04:25:55;10.60;26.20
4922;DHT22;16625;53.624;10.106;2023-04-23T04:28:24;10.50;27.00
4922;DHT22;16625;53.624;10.106;2023-04-23T04:30:52;10.60;1.00
4922;DHT22;16625;53.624;10.106;2023-04-23T04:33:23;10.40;1.00
4922;DHT22;16625;53.624;10.106;2023-04-23T04:35:50;10.50;1.00
4922;DHT22;16625;53.624;10.106;2023-04-23T04:38:17;10.20;1.00
4922;DHT22;16625;53.624;10.106;2023-04-23T04:40:44;10.20;1.00
4922;DHT22;16625;53.624;10.106;2023-04-23T04:43:11;10.20;99.90
4922;DHT22;16625;53.624;10.106;2023-04-23T04:45:38;10.20;99.90
4922;DHT22;16625;53.624;10.106;2023-04-23T04:48:05;10.30;99.90
4922;DHT22;16625;53.624;10.106;2023-04-23T04:50:34;10.10;99.90
4922;DHT22;16625;53.624;10.106;2023-04-23T04:53:01;10.30;1.00
4922;DHT22;16625;53.624;10.106;2023-04-23T04:55:30;10.50;99.90
4922;DHT22;16625;53.624;10.106;2023-04-23T04:57:57;10.50;99.90
4922;DHT22;16625;53.624;10.106;2023-04-23T05:00:26;10.20;99.90
4922;DHT22;16625;53.624;10.106;2023-04-23T05:02:54;10.30;99.90
4922;DHT22;16625;53.624;10.106;2023-04-23T05:05:23;10.00;69.90
4922;DHT22;16625;53.624;10.106;2023-04-23T05:07:53;10.30;63.20
4922;DHT22;16625;53.624;10.106;2023-04-23T05:10:23;9.80;1.00
4922;DHT22;16625;53.624;10.106;2023-04-23T05:12:51;10.30;1.00
4922;DHT22;16625;53.624;10.106;2023-04-23T05:15:18;10.00;40.70
4922;DHT22;16625;53.624;10.106;2023-04-23T05:17:45;9.80;1.00
4922;DHT22;16625;53.624;10.106;2023-04-23T05:20:14;10.10;99.90
4922;DHT22;16625;53.624;10.106;2023-04-23T05:22:42;10.00;99.90
4922;DHT22;16625;53.624;10.106;2023-04-23T05:25:11;10.10;99.90
4922;DHT22;16625;53.624;10.106;2023-04-23T05:27:39;10.20;1.00
4922;DHT22;16625;53.624;10.106;2023-04-23T05:30:08;10.10;1.00
4922;DHT22;16625;53.624;10.106;2023-04-23T05:32:36;10.10;1.00
4922;DHT22;16625;53.624;10.106;2023-04-23T05:35:03;10.20;1.00
4922;DHT22;16625;53.624;10.106;2023-04-23T05:37:33;10.10;99.90
4922;DHT22;16625;53.624;10.106;2023-04-23T05:40:00;10.30;1.00
4922;DHT22;16625;53.624;10.106;2023-04-23T05:42:31;10.30;1.00
4922;DHT22;16625;53.624;10.106;2023-04-23T05:44:59;10.30;99.90
4922;DHT22;16625;53.624;10.106;2023-04-23T05:47:26;10.40;1.00
4922;DHT22;16625;53.624;10.106;2023-04-23T05:49:53;10.50;1.00
4922;DHT22;16625;53.624;10.106;2023-04-23T05:52:21;10.70;99.90
4922;DHT22;16625;53.624;10.106;2023-04-23T05:54:49;10.50;1.00
4922;DHT22;16625;53.624;10.106;2023-04-23T05:57:16;10.00;1.00
4922;DHT22;16625;53.624;10.106;2023-04-23T05:59:45;10.50;1.00
4922;DHT22;16625;53.624;10.106;2023-04-23T06:02:12;10.40;1.00
4922;DHT22;16625;53.624;10.106;2023-04-23T06:04:39;10.30;99.90
4922;DHT22;16625;53.624;10.106;2023-04-23T06:07:06;10.40;99.90
4922;DHT22;16625;53.624;10.106;2023-04-23T06:09:33;10.20;99.90
4922;DHT22;16625;53.624;10.106;2023-04-23T06:12:01;10.40;99.90
4922;DHT22;16625;53.624;10.106;2023-04-23T06:14:28;10.50;99.90
4922;DHT22;16625;53.624;10.106;2023-04-23T06:16:56;10.60;99.90
4922;DHT22;16625;53.624;10.106;2023-04-23T06:19:25;10.40;1.00
4922;DHT22;16625;53.624;10.106;2023-04-23T06:21:52;10.70;1.00
4922;DHT22;16625;53.624;10.106;2023-04-23T06:24:19;10.60;1.00
4922;DHT22;16625;53.624;10.106;2023-04-23T06:26:46;10.40;99.90
4922;DHT22;16625;53.624;10.106;2023-04-23T06:29:13;10.40;99.90
4922;DHT22;16625;53.624;10.106;2023-04-23T06:31:41;10.30;99.90
4922;DHT22;16625;53.624;10.106;2023-04-23T06:34:09;10.60;99.90
4922;DHT22;16625;53.624;10.106;2023-04-23T06:36:36;10.60;99.90
4922;DHT22;16625;53.624;10.106;2023-04-23T06:39:03;10.70;8.90
4922;DHT22;16625;53.624;10.106;2023-04-23T06:41:30;10.80;99.90
4922;DHT22;16625;53.624;10.106;2023-04-23T06:43:57;10.90;99.90
4922;DHT22;16625;53.624;10.106;2023-04-23T06:46:25;11.00;1.00
4922;DHT22;16625;53.624;10.106;2023-04-23T06:48:51;11.10;99.90
4922;DHT22;16625;53.624;10.106;2023-04-23T06:51:20;11.00;1.00
4922;DHT22;16625;53.624;10.106;2023-04-23T06:53:47;11.10;1.00
4922;DHT22;16625;53.624;10.106;2023-04-23T06:56:14;11.20;99.90
4922;DHT22;16625;53.624;10.106;2023-04-23T06:58:41;11.20;81.20
4922;DHT22;16625;53.624;10.106;2023-04-23T07:01:10;11.20;1.00
4922;DHT22;16625;53.624;10.106;2023-04-23T07:03:38;11.10;1.00
4922;DHT22;16625;53.624;10.106;2023-04-23T07:06:10;11.00;1.00
4922;DHT22;16625;53.624;10.106;2023-04-23T07:08:39;11.10;99.90
4922;DHT22;16625;53.624;10.106;2023-04-23T07:11:06;11.20;1.00
4922;DHT22;16625;53.624;10.106;2023-04-23T07:13:36;11.40;99.90
4922;DHT22;16625;53.624;10.106;2023-04-23T07:16:03;11.30;99.90
4922;DHT22;16625;53.624;10.106;2023-04-23T07:18:32;11.50;1.00
4922;DHT22;16625;53.624;10.106;2023-04-23T07:20:59;11.70;27.80
4922;DHT22;16625;53.624;10.106;2023-04-23T07:23:26;11.80;1.00
4922;DHT22;16625;53.624;10.106;2023-04-23T07:25:54;11.90;1.00
4922;DHT22;16625;53.624;10.106;2023-04-23T07:28:22;12.10;1.00
4922;DHT22;16625;53.624;10.106;2023-04-23T07:30:49;12.10;99.90
4922;DHT22;16625;53.624;10.106;2023-04-23T07:33:16;12.30;99.90
4922;DHT22;16625;53.624;10.106;2023-04-23T07:35:43;12.20;1.00
4922;DHT22;16625;53.624;10.106;2023-04-23T07:38:10;12.20;1.00
4922;DHT22;16625;53.624;10.106;2023-04-23T07:40:38;12.20;1.00
4922;DHT22;16625;53.624;10.106;2023-04-23T07:43:07;12.30;1.00
4922;DHT22;16625;53.624;10.106;2023-04-23T07:45:35;12.40;1.00
4922;DHT22;16625;53.624;10.106;2023-04-23T07:48:02;12.40;99.90
4922;DHT22;16625;53.624;10.106;2023-04-23T07:50:29;12.60;1.00
4922;DHT22;16625;53.624;10.106;2023-04-23T07:52:56;12.90;1.00
4922;DHT22;16625;53.624;10.106;2023-04-23T07:55:23;13.00;99.90
4922;DHT22;16625;53.624;10.106;2023-04-23T07:57:50;13.10;99.90
4922;DHT22;16625;53.624;10.106;2023-04-23T08:00:20;13.20;1.00
4922;DHT22;16625;53.624;10.106;2023-04-23T08:02:47;13.50;99.90
4922;DHT22;16625;53.624;10.106;2023-04-23T08:05:17;13.50;1.00
4922;DHT22;16625;53.624;10.106;2023-04-23T08:07:44;13.60;99.90
4922;DHT22;16625;53.624;10.106;2023-04-23T08:10:11;13.70;99.90
4922;DHT22;16625;53.624;10.106;2023-04-23T08:12:39;13.80;56.50
4922;DHT22;16625;53.624;10.106;2023-04-23T08:15:07;14.10;1.00
4922;DHT22;16625;53.624;10.106;2023-04-23T08:17:36;14.10;1.00
4922;DHT22;16625;53.624;10.106;2023-04-23T08:20:04;14.40;1.00
4922;DHT22;16625;53.624;10.106;2023-04-23T08:22:32;14.10;1.00
4922;DHT22;16625;53.624;10.106;2023-04-23T08:24:59;14.20;1.00
4922;DHT22;16625;53.624;10.106;2023-04-23T08:27:26;14.50;1.00
4922;DHT22;16625;53.624;10.106;2023-04-23T08:29:53;14.30;1.00
4922;DHT22;16625;53.624;10.106;2023-04-23T08:32:20;14.10;1.00
4922;DHT22;16625;53.624;10.106;2023-04-23T08:34:48;14.10;1.00
4922;DHT22;16625;53.624;10.106;2023-04-23T08:37:15;14.30;1.00
4922;DHT22;16625;53.624;10.106;2023-04-23T08:39:42;14.40;1.00
4922;DHT22;16625;53.624;10.106;2023-04-23T08:42:14;14.30;1.00
4922;DHT22;16625;53.624;10.106;2023-04-23T08:44:45;14.40;1.00
4922;DHT22;16625;53.624;10.106;2023-04-23T08:47:17;14.40;1.00
4922;DHT22;16625;53.624;10.106;2023-04-23T08:49:45;14.50;1.00
4922;DHT22;16625;53.624;10.106;2023-04-23T08:52:23;14.50;1.00
4922;DHT22;16625;53.624;10.106;2023-04-23T08:54:52;14.60;1.00
4922;DHT22;16625;53.624;10.106;2023-04-23T08:57:19;14.60;1.00
4922;DHT22;16625;53.624;10.106;2023-04-23T08:59:46;14.70;1.00
4922;DHT22;16625;53.624;10.106;2023-04-23T09:02:16;14.90;99.90
4922;DHT22;16625;53.624;10.106;2023-04-23T09:04:44;15.00;99.90
4922;DHT22;16625;53.624;10.106;2023-04-23T09:07:13;15.00;99.90
4922;DHT22;16625;53.624;10.106;2023-04-23T09:09:41;15.10;99.90
4922;DHT22;16625;53.624;10.106;2023-04-23T09:12:08;15.10;99.90
4922;DHT22;16625;53.624;10.106;2023-04-23T09:14:37;15.20;99.90
4922;DHT22;16625;53.624;10.106;2023-04-23T09:17:04;15.20;99.90
4922;DHT22;16625;53.624;10.106;2023-04-23T09:19:31;15.00;99.90
4922;DHT22;16625;53.624;10.106;2023-04-23T09:21:58;15.10;99.90
4922;DHT22;16625;53.624;10.106;2023-04-23T09:24:26;15.10;99.90
4922;DHT22;16625;53.624;10.106;2023-04-23T09:26:57;14.80;99.90
4922;DHT22;16625;53.624;10.106;2023-04-23T09:29:24;15.30;99.90
4922;DHT22;16625;53.624;10.106;2023-04-23T09:31:54;15.50;99.90
4922;DHT22;16625;53.624;10.106;2023-04-23T09:34:23;15.80;99.90
4922;DHT22;16625;53.624;10.106;2023-04-23T09:36:52;16.10;99.90
4922;DHT22;16625;53.624;10.106;2023-04-23T09:39:21;16.50;99.90
4922;DHT22;16625;53.624;10.106;2023-04-23T09:41:50;16.90;99.90
4922;DHT22;16625;53.624;10.106;2023-04-23T09:44:19;16.80;99.90
4922;DHT22;16625;53.624;10.106;2023-04-23T09:46:47;16.80;99.90
4922;DHT22;16625;53.624;10.106;2023-04-23T09:49:15;16.80;99.90
4922;DHT22;16625;53.624;10.106;2023-04-23T09:51:45;16.80;99.90
4922;DHT22;16625;53.624;10.106;2023-04-23T09:54:14;16.80;99.90
4922;DHT22;16625;53.624;10.106;2023-04-23T09:56:42;16.70;99.90
4922;DHT22;16625;53.624;10.106;2023-04-23T09:59:29;16.70;99.90
4922;DHT22;16625;53.624;10.106;2023-04-23T10:02:01;16.50;99.90
4922;DHT22;16625;53.624;10.106;2023-04-23T10:04:28;16.40;99.90
4922;DHT22;16625;53.624;10.106;2023-04-23T10:06:56;16.40;99.90
4922;DHT22;16625;53.624;10.106;2023-04-23T10:09:24;16.30;99.90
4922;DHT22;16625;53.624;10.106;2023-04-23T10:11:54;16.00;99.90
4922;DHT22;16625;53.624;10.106;2023-04-23T10:14:22;15.90;99.90
4922;DHT22;16625;53.624;10.106;2023-04-23T10:16:56;16.10;99.90
4922;DHT22;16625;53.624;10.106;2023-04-23T10:19:24;16.30;99.90
4922;DHT22;16625;53.624;10.106;2023-04-23T10:21:53;16.30;99.90
4922;DHT22;16625;53.624;10.106;2023-04-23T10:24:26;16.30;99.90
4922;DHT22;16625;53.624;10.106;2023-04-23T10:26:56;16.20;99.90
4922;DHT22;16625;53.624;10.106;2023-04-23T10:29:26;16.10;99.90
4922;DHT22;16625;53.624;10.106;2023-04-23T10:31:56;16.60;99.90
4922;DHT22;16625;53.624;10.106;2023-04-23T10:34:27;16.40;99.90
4922;DHT22;16625;53.624;10.106;2023-04-23T10:36:58;16.40;99.90
4922;DHT22;16625;53.624;10.106;2023-04-23T10:39:27;16.50;99.90
4922;DHT22;16625;53.624;10.106;2023-04-23T10:41:56;16.60;99.90
4922;DHT22;16625;53.624;10.106;2023-04-23T10:44:31;16.50;99.90
4922;DHT22;16625;53.624;10.106;2023-04-23T10:47:00;16.40;99.90
4922;DHT22;16625;53.624;10.106;2023-04-23T10:49:29;16.50;99.90
4922;DHT22;16625;53.624;10.106;2023-04-23T10:52:03;16.50;99.90
4922;DHT22;16625;53.624;10.106;2023-04-23T10:54:34;16.60;99.90
4922;DHT22;16625;53.624;10.106;2023-04-23T10:57:02;16.70;99.90
4922;DHT22;16625;53.624;10.106;2023-04-23T10:59:32;16.80;99.90
4922;DHT22;16625;53.624;10.106;2023-04-23T11:02:07;17.00;99.90
4922;DHT22;16625;53.624;10.106;2023-04-23T11:04:41;16.90;99.90
4922;DHT22;16625;53.624;10.106;2023-04-23T11:07:09;16.90;99.90
4922;DHT22;16625;53.624;10.106;2023-04-23T11:09:40;17.10;99.90
4922;DHT22;16625;53.624;10.106;2023-04-23T11:12:10;17.10;99.90
4922;DHT22;16625;53.624;10.106;2023-04-23T11:14:45;17.30;99.90
4922;DHT22;16625;53.624;10.106;2023-04-23T11:17:15;17.30;99.90
4922;DHT22;16625;53.624;10.106;2023-04-23T11:20:08;17.30;99.90
4922;DHT22;16625;53.624;10.106;2023-04-23T11:22:42;17.20;99.90
4922;DHT22;16625;53.624;10.106;2023-04-23T11:25:11;17.20;99.90
4922;DHT22;16625;53.624;10.106;2023-04-23T11:27:40;17.30;99.90
4922;DHT22;16625;53.624;10.106;2023-04-23T11:30:11;17.30;99.90
4922;DHT22;16625;53.624;10.106;2023-04-23T11:32:40;17.40;99.90
4922;DHT22;16625;53.624;10.106;2023-04-23T11:35:08;17.50;99.90
4922;DHT22;16625;53.624;10.106;2023-04-23T11:37:38;17.70;99.90
4922;DHT22;16625;53.624;10.106;2023-04-23T11:40:07;18.10;99.90
4922;DHT22;16625;53.624;10.106;2023-04-23T11:42:42;17.90;99.90
4922;DHT22;16625;53.624;10.106;2023-04-23T11:45:17;18.10;99.90
4922;DHT22;16625;53.624;10.106;2023-04-23T11:47:50;17.90;99.90
4922;DHT22;16625;53.624;10.106;2023-04-23T11:50:25;18.00;99.90
4922;DHT22;16625;53.624;10.106;2023-04-23T11:52:57;18.00;99.90
4922;DHT22;16625;53.624;10.106;2023-04-23T14:32:36;20.70;99.90
4922;DHT22;16625;53.624;10.106;2023-04-23T14:35:04;20.50;99.90
4922;DHT22;16625;53.624;10.106;2023-04-23T14:37:31;20.20;99.90
4922;DHT22;16625;53.624;10.106;2023-04-23T14:39:59;19.80;99.90
4922;DHT22;16625;53.624;10.106;2023-04-23T14:42:26;19.50;99.90
4922;DHT22;16625;53.624;10.106;2023-04-23T14:44:57;19.30;99.90
4922;DHT22;16625;53.624;10.106;2023-04-23T14:47:25;19.10;99.90
4922;DHT22;16625;53.624;10.106;2023-04-23T14:49:53;18.60;99.90
4922;DHT22;16625;53.624;10.106;2023-04-23T14:52:22;17.60;99.90
4922;DHT22;16625;53.624;10.106;2023-04-23T14:54:49;17.00;99.90
4922;DHT22;16625;53.624;10.106;2023-04-23T14:57:18;16.40;99.90
4922;DHT22;16625;53.624;10.106;2023-04-23T14:59:45;15.90;99.90
4922;DHT22;16625;53.624;10.106;2023-04-23T15:02:12;15.50;1.00
4922;DHT22;16625;53.624;10.106;2023-04-23T15:04:38;15.30;1.00
4922;DHT22;16625;53.624;10.106;2023-04-23T15:07:07;15.20;1.00
4922;DHT22;16625;53.624;10.106;2023-04-23T15:09:37;15.00;99.90
4922;DHT22;16625;53.624;10.106;2023-04-23T15:12:05;14.90;99.90
4922;DHT22;16625;53.624;10.106;2023-04-23T15:14:52;15.00;99.90
4922;DHT22;16625;53.624;10.106;2023-04-23T15:17:20;15.40;99.90
4922;DHT22;16625;53.624;10.106;2023-04-23T15:19:49;15.90;99.90
4922;DHT22;16625;53.624;10.106;2023-04-23T15:22:20;16.70;1.00
4922;DHT22;16625;53.624;10.106;2023-04-23T15:24:49;17.00;99.90
4922;DHT22;16625;53.624;10.106;2023-04-23T15:27:16;17.20;99.90
4922;DHT22;16625;53.624;10.106;2023-04-23T15:29:46;17.40;99.90
4922;DHT22;16625;53.624;10.106;2023-04-23T15:32:13;17.40;99.90
4922;DHT22;16625;53.624;10.106;2023-04-23T15:34:42;17.20;99.90
4922;DHT22;16625;53.624;10.106;2023-04-23T15:37:09;17.00;99.90
4922;DHT22;16625;53.624;10.106;2023-04-23T15:39:38;16.90;99.90
4922;DHT22;16625;53.624;10.106;2023-04-23T15:42:05;16.90;99.90
4922;DHT22;16625;53.624;10.106;2023-04-23T15:44:33;17.00;99.90
4922;DHT22;16625;53.624;10.106;2023-04-23T15:47:00;17.00;99.90
4922;DHT22;16625;53.624;10.106;2023-04-23T15:49:27;16.90;99.90
4922;DHT22;16625;53.624;10.106;2023-04-23T15:51:54;17.00;99.90
4922;DHT22;16625;53.624;10.106;2023-04-23T15:54:23;17.10;99.90
4922;DHT22;16625;53.624;10.106;2023-04-23T15:56:51;17.20;99.90
4922;DHT22;16625;53.624;10.106;2023-04-23T15:59:21;17.10;99.90
4922;DHT22;16625;53.624;10.106;2023-04-23T16:01:48;17.20;99.90
4922;DHT22;16625;53.624;10.106;2023-04-23T16:04:17;17.10;99.90
4922;DHT22;16625;53.624;10.106;2023-04-23T16:06:44;17.00;99.90
4922;DHT22;16625;53.624;10.106;2023-04-23T16:09:13;16.90;99.90
4922;DHT22;16625;53.624;10.106;2023-04-23T16:11:40;16.90;99.90
4922;DHT22;16625;53.624;10.106;2023-04-23T16:14:08;16.90;99.90
4922;DHT22;16625;53.624;10.106;2023-04-23T16:16:36;16.90;99.90
4922;DHT22;16625;53.624;10.106;2023-04-23T16:19:03;16.90;99.90
4922;DHT22;16625;53.624;10.106;2023-04-23T16:21:31;16.90;99.90
4922;DHT22;16625;53.624;10.106;2023-04-23T16:23:59;16.80;99.90
4922;DHT22;16625;53.624;10.106;2023-04-23T16:26:27;16.60;99.90
4922;DHT22;16625;53.624;10.106;2023-04-23T16:28:55;16.50;99.90
4922;DHT22;16625;53.624;10.106;2023-04-23T16:31:23;16.40;99.90
4922;DHT22;16625;53.624;10.106;2023-04-23T16:33:50;16.40;99.90
4922;DHT22;16625;53.624;10.106;2023-04-23T16:36:17;16.20;99.90
4922;DHT22;16625;53.624;10.106;2023-04-23T16:38:44;16.10;1.00
4922;DHT22;16625;53.624;10.106;2023-04-23T16:41:13;16.00;1.00
4922;DHT22;16625;53.624;10.106;2023-04-23T16:43:43;15.80;1.00
4922;DHT22;16625;53.624;10.106;2023-04-23T16:46:09;15.70;99.90
4922;DHT22;16625;53.624;10.106;2023-04-23T16:48:38;15.60;99.90
4922;DHT22;16625;53.624;10.106;2023-04-23T16:51:05;15.20;99.90
4922;DHT22;16625;53.624;10.106;2023-04-23T16:53:32;15.20;99.90
4922;DHT22;16625;53.624;10.106;2023-04-23T16:56:01;14.90;1.00
4922;DHT22;16625;53.624;10.106;2023-04-23T16:58:29;14.70;99.90
4922;DHT22;16625;53.624;10.106;2023-04-23T17:00:56;14.50;1.00
4922;DHT22;16625;53.624;10.106;2023-04-23T17:03:24;14.50;38.60
4922;DHT22;16625;53.624;10.106;2023-04-23T17:05:58;14.40;1.00
4922;DHT22;16625;53.624;10.106;2023-04-23T17:08:25;14.30;99.90
4922;DHT22;16625;53.624;10.106;2023-04-23T17:10:53;14.30;1.00
4922;DHT22;16625;53.624;10.106;2023-04-23T17:13:22;14.20;1.00
4922;DHT22;16625;53.624;10.106;2023-04-23T17:15:48;14.10;1.00
4922;DHT22;16625;53.624;10.106;2023-04-23T17:18:15;14.10;99.90
4922;DHT22;16625;53.624;10.106;2023-04-23T17:20:44;14.10;99.90
4922;DHT22;16625;53.624;10.106;2023-04-23T17:23:13;14.20;72.90
4922;DHT22;16625;53.624;10.106;2023-04-23T17:25:40;14.30;99.90
4922;DHT22;16625;53.624;10.106;2023-04-23T17:28:07;14.20;99.90
4922;DHT22;16625;53.624;10.106;2023-04-23T17:30:33;14.00;1.00
4922;DHT22;16625;53.624;10.106;2023-04-23T17:33:01;13.90;99.90
4922;DHT22;16625;53.624;10.106;2023-04-23T17:35:29;14.00;1.00
4922;DHT22;16625;53.624;10.106;2023-04-23T17:38:24;14.00;99.90
4922;DHT22;16625;53.624;10.106;2023-04-23T17:40:52;14.00;1.00
4922;DHT22;16625;53.624;10.106;2023-04-23T17:43:19;14.00;99.90
4922;DHT22;16625;53.624;10.106;2023-04-23T17:45:46;14.10;1.00
4922;DHT22;16625;53.624;10.106;2023-04-23T17:48:13;13.90;1.00
4922;DHT22;16625;53.624;10.106;2023-04-23T17:50:41;14.00;99.30
4922;DHT22;16625;53.624;10.106;2023-04-23T17:53:08;13.80;99.90
4922;DHT22;16625;53.624;10.106;2023-04-23T17:55:37;13.80;99.90
4922;DHT22;16625;53.624;10.106;2023-04-23T17:58:04;13.80;99.90
4922;DHT22;16625;53.624;10.106;2023-04-23T18:00:36;13.90;99.90
4922;DHT22;16625;53.624;10.106;2023-04-23T18:03:04;13.90;99.90
4922;DHT22;16625;53.624;10.106;2023-04-23T18:05:35;13.90;99.90
4922;DHT22;16625;53.624;10.106;2023-04-23T18:08:03;13.90;99.90
4922;DHT22;16625;53.624;10.106;2023-04-23T18:10:31;13.90;1.00
4922;DHT22;16625;53.624;10.106;2023-04-23T18:13:02;13.80;1.00
4922;DHT22;16625;53.624;10.106;2023-04-23T18:15:31;13.70;99.90
4922;DHT22;16625;53.624;10.106;2023-04-23T18:17:58;13.60;1.00